Time;durP1;ratioP1;P1;durP2;ratioP2;P2;SDS_P1;SDS_P2;PMS_P1;PMS_P2;Temp;Humidity;BMP_temperature;BMP_pressure;BME280_temperature;BME280_humidity;BME280_pressure;Samples;Min_cycle;Max_cycle;Signal;HPM_P1;HPM_P2
2021/08/06 00:01:58;;;;;;;6.65;5.15;;;;;;;17.35;71.24;99840.06;4898071;28;99162;-68
2021/08/06 00:04:24;;;;;;;5.97;5.13;;;;;;;17.35;71.01;99839.25;4894980;28;111236;-68
2021/08/06 00:06:50;;;;;;;5.57;5.07;;;;;;;17.33;71.22;99838.78;4886879;28;127683;-65
2021/08/06 00:09:16;;;;;;;5.93;5.30;;;;;;;17.34;71.20;99841.19;4881527;28;97713;-68
2021/08/06 00:11:42;;;;;;;6.50;5.82;;;;;;;17.34;71.19;99840.38;4879546;28;127295;-69
2021/08/06 00:14:09;;;;;;;6.78;5.97;;;;;;;17.32;71.18;99840.69;4881403;28;99040;-65
2021/08/06 00:16:36;;;;;;;6.00;5.40;;;;;;;17.32;71.32;99831.72;4878263;28;127701;-68
2021/08/06 00:19:02;;;;;;;7.20;5.55;;;;;;;17.31;71.23;99833.66;4882168;28;97994;-65
2021/08/06 00:21:29;;;;;;;6.40;5.80;;;;;;;17.33;71.24;99833.31;4882928;28;126379;-65
2021/08/06 00:23:55;;;;;;;6.32;5.70;;;;;;;17.32;71.26;99829.81;4914980;28;99127;-64
2021/08/06 00:26:21;;;;;;;5.68;5.13;;;;;;;17.33;71.33;99831.44;4883656;28;111635;-69
2021/08/06 00:28:47;;;;;;;6.40;5.80;;;;;;;17.32;71.30;99832.53;4883746;28;122148;-68
2021/08/06 00:31:13;;;;;;;6.93;6.32;;;;;;;17.31;70.82;99827.41;4900103;28;125965;-68
2021/08/06 00:33:39;;;;;;;7.55;6.22;;;;;;;17.27;71.38;99835.44;4903180;28;98936;-65
2021/08/06 00:36:05;;;;;;;6.07;5.57;;;;;;;17.26;71.82;99833.84;4900311;28;126951;-65
2021/08/06 00:38:31;;;;;;;5.95;5.35;;;;;;;17.24;71.40;99835.28;4901929;28;116457;-68
2021/08/06 00:40:57;;;;;;;6.00;5.40;;;;;;;17.23;71.41;99828.25;4901854;28;125405;-69
2021/08/06 00:43:23;;;;;;;6.03;5.40;;;;;;;17.23;71.67;99833.72;4896998;28;98528;-68
2021/08/06 00:45:49;;;;;;;5.43;4.95;;;;;;;17.22;71.64;99837.56;4901598;28;98064;-68
2021/08/06 00:48:15;;;;;;;5.43;4.90;;;;;;;17.20;71.65;99837.88;4901229;28;97796;-65
2021/08/06 00:50:41;;;;;;;6.05;5.55;;;;;;;17.17;71.52;99835.78;4914556;28;127931;-68
2021/08/06 00:53:08;;;;;;;6.00;5.50;;;;;;;17.12;71.78;99838.69;4933275;28;127157;-65
2021/08/06 00:55:34;;;;;;;6.10;5.50;;;;;;;17.07;71.83;99828.78;4917228;28;98373;-68
2021/08/06 00:58:00;;;;;;;6.07;5.57;;;;;;;17.08;71.73;99829.59;4903367;28;97845;-68
2021/08/06 01:00:26;;;;;;;6.53;5.57;;;;;;;17.08;71.88;99840.47;4902898;28;106051;-68
2021/08/06 01:03:06;;;;;;;6.93;5.40;;;;;;;17.04;71.56;99825.91;4883894;28;128217;-65
2021/08/06 01:05:42;;;;;;;6.30;5.47;;;;;;;17.01;71.49;99821.13;4881546;28;98088;-65
2021/08/06 01:08:15;;;;;;;7.18;5.45;;;;;;;17.00;71.74;99835.88;4886154;28;97968;-65
2021/08/06 01:11:02;;;;;;;6.40;5.82;;;;;;;16.97;71.37;99828.34;4916054;28;97955;-65
2021/08/06 01:13:52;;;;;;;6.78;6.07;;;;;;;16.94;71.80;99827.09;4914126;28;116106;-65
2021/08/06 01:16:18;;;;;;;6.13;5.60;;;;;;;16.93;72.11;99823.53;4900291;28;106800;-65
2021/08/06 01:18:50;;;;;;;6.68;6.10;;;;;;;16.91;71.88;99825.00;4899677;28;121960;-65
2021/08/06 01:21:18;;;;;;;6.35;5.85;;;;;;;16.89;72.09;99828.03;4902499;28;101952;-68
2021/08/06 01:23:44;;;;;;;6.05;5.55;;;;;;;16.90;71.90;99824.22;4900232;28;98247;-69
2021/08/06 01:26:18;;;;;;;6.10;5.60;;;;;;;16.88;72.07;99812.84;4900202;28;116070;-68
2021/08/06 01:28:46;;;;;;;6.07;5.57;;;;;;;16.92;72.24;99813.78;4884374;28;97876;-65
2021/08/06 01:31:13;;;;;;;6.25;5.65;;;;;;;16.93;72.21;99812.66;4898879;28;114729;-68
2021/08/06 01:33:40;;;;;;;6.10;5.50;;;;;;;16.93;72.12;99812.66;4901288;28;109763;-68
2021/08/06 01:36:07;;;;;;;6.57;6.05;;;;;;;16.90;72.08;99807.09;4899528;28;114054;-65
2021/08/06 01:38:33;;;;;;;6.85;6.22;;;;;;;16.86;72.12;99817.03;4901403;28;97923;-65
2021/08/06 01:41:30;;;;;;;6.80;6.22;;;;;;;16.76;71.85;99818.16;4901386;28;101325;-65
2021/08/06 01:44:28;;;;;;;6.97;6.28;;;;;;;16.72;72.26;99819.91;4902860;28;98557;-69
2021/08/06 01:47:00;;;;;;;6.22;5.63;;;;;;;16.68;72.33;99813.50;4900413;28;98382;-65
2021/08/06 01:49:31;;;;;;;7.65;6.15;;;;;;;16.66;72.49;99818.47;4900384;28;100080;-65
2021/08/06 01:52:03;;;;;;;6.07;5.47;;;;;;;16.64;72.26;99807.13;4899903;28;98121;-69
2021/08/06 01:54:31;;;;;;;6.47;5.80;;;;;;;16.65;72.43;99808.69;4884585;28;98499;-68
2021/08/06 01:56:57;;;;;;;6.70;5.65;;;;;;;16.65;72.32;99814.16;4899842;28;116587;-69
2021/08/06 01:59:23;;;;;;;6.55;5.95;;;;;;;16.68;72.43;99810.78;4885900;28;122781;-68
2021/08/06 02:01:49;;;;;;;6.25;5.30;;;;;;;16.67;72.64;99806.47;4896777;28;127991;-68
2021/08/06 02:04:15;;;;;;;6.05;5.38;;;;;;;16.68;72.63;99803.41;4888616;28;127940;-65
2021/08/06 02:06:43;;;;;;;6.60;5.72;;;;;;;16.66;72.32;99805.69;4899662;28;108890;-65
2021/08/06 02:09:16;;;;;;;6.32;5.72;;;;;;;16.67;72.42;99803.75;4902816;28;98150;-65
2021/08/06 02:11:42;;;;;;;6.63;6.03;;;;;;;16.71;72.18;99809.34;4881686;28;97926;-68
2021/08/06 02:14:09;;;;;;;6.50;5.90;;;;;;;16.72;73.03;99813.66;4880962;28;111537;-65
2021/08/06 02:16:35;;;;;;;9.50;6.32;;;;;;;16.73;72.79;99802.47;4912055;28;114534;-65
2021/08/06 02:19:01;;;;;;;7.15;6.32;;;;;;;16.75;72.59;99802.16;4896150;28;123192;-68
2021/08/06 02:21:30;;;;;;;8.18;6.18;;;;;;;16.74;72.44;99804.09;4895311;28;119997;-68
2021/08/06 02:23:59;;;;;;;7.15;6.22;;;;;;;16.75;72.37;99794.78;4894619;28;99061;-65
2021/08/06 02:26:25;;;;;;;6.70;6.00;;;;;;;16.75;72.50;99800.25;4915390;28;98278;-68
2021/08/06 02:28:51;;;;;;;7.20;6.60;;;;;;;16.75;72.57;99786.63;4891140;28;98046;-65
2021/08/06 02:31:20;;;;;;;7.53;6.82;;;;;;;16.74;72.22;99784.22;4881250;28;128588;-65
2021/08/06 02:33:46;;;;;;;7.93;7.20;;;;;;;16.76;72.50;99781.97;4880550;28;99104;-68
2021/08/06 02:36:13;;;;;;;7.57;6.93;;;;;;;16.76;72.63;99780.06;4879098;28;126295;-65
2021/08/06 02:38:39;;;;;;;8.02;7.32;;;;;;;16.77;72.67;99784.38;4888172;28;123072;-68
2021/08/06 02:41:05;;;;;;;9.07;7.05;;;;;;;16.77;72.67;99780.84;4900723;28;97876;-68
2021/08/06 02:43:31;;;;;;;9.85;7.22;;;;;;;16.76;72.59;99780.06;4893212;28;128446;-68
2021/08/06 02:45:57;;;;;;;8.02;7.22;;;;;;;16.76;72.72;99781.97;4890790;28;98011;-68
2021/08/06 02:48:24;;;;;;;8.00;7.20;;;;;;;16.73;72.91;99785.31;4914837;28;122925;-68
2021/08/06 02:50:50;;;;;;;8.40;7.70;;;;;;;16.73;72.88;99796.19;4899195;28;99278;-68
2021/08/06 02:53:16;;;;;;;7.72;7.05;;;;;;;16.73;72.96;99790.75;4898211;28;127660;-65
2021/08/06 02:55:42;;;;;;;8.07;6.97;;;;;;;16.73;72.73;99783.44;4899461;28;126988;-65
2021/08/06 02:58:08;;;;;;;7.70;6.95;;;;;;;16.74;72.90;99790.50;4901406;28;97800;-68
2021/08/06 03:00:34;;;;;;;8.15;7.00;;;;;;;16.73;72.99;99777.16;4899845;28;127795;-68
2021/08/06 03:03:00;;;;;;;8.60;7.70;;;;;;;16.73;72.73;99779.88;4914912;28;125648;-68
2021/08/06 03:05:26;;;;;;;8.00;7.20;;;;;;;16.74;72.90;99784.22;4900498;28;114247;-68
2021/08/06 03:07:52;;;;;;;7.75;7.05;;;;;;;16.74;72.68;99773.34;4914298;28;125894;-68
2021/08/06 03:10:19;;;;;;;7.75;7.05;;;;;;;16.73;72.72;99775.25;4897256;28;127870;-65
2021/08/06 03:12:47;;;;;;;8.70;7.90;;;;;;;16.74;72.76;99776.06;4900456;28;99435;-67
2021/08/06 03:15:14;;;;;;;8.40;7.60;;;;;;;16.74;72.80;99770.63;4901352;28;110245;-65
2021/08/06 03:17:41;;;;;;;9.98;9.00;;;;;;;16.76;72.92;99781.97;4901105;28;97691;-67
2021/08/06 03:20:12;;;;;;;10.13;9.25;;;;;;;16.72;72.72;99779.09;4881740;28;98763;-65
2021/08/06 03:22:39;;;;;;;9.23;8.43;;;;;;;16.74;72.77;99778.78;4899661;28;98443;-68
2021/08/06 03:25:06;;;;;;;8.68;7.97;;;;;;;16.72;72.88;99779.09;4899899;28;117541;-65
2021/08/06 03:27:33;;;;;;;8.93;8.02;;;;;;;16.72;72.78;99789.16;4900863;28;108169;-65
2021/08/06 03:29:59;;;;;;;8.82;8.05;;;;;;;16.72;72.83;99789.97;4913281;28;98261;-65
2021/08/06 03:32:25;;;;;;;8.85;7.97;;;;;;;16.71;72.78;99788.38;4899962;28;129089;-65
2021/08/06 03:34:51;;;;;;;8.07;7.47;;;;;;;16.70;72.88;99781.31;4890636;28;115483;-65
2021/08/06 03:37:17;;;;;;;8.88;8.05;;;;;;;16.69;72.92;99777.00;4911830;28;97762;-65
2021/08/06 03:39:43;;;;;;;9.80;9.00;;;;;;;16.67;72.79;99788.22;4895680;28;98513;-65
2021/08/06 03:42:09;;;;;;;9.73;8.80;;;;;;;16.66;72.85;99785.81;4879944;28;126307;-65
2021/08/06 03:44:35;;;;;;;9.63;8.70;;;;;;;16.64;73.02;99775.25;4881312;28;97790;-65
2021/08/06 03:47:01;;;;;;;10.63;9.73;;;;;;;16.63;72.92;99773.66;4890506;28;110344;-68
2021/08/06 03:49:27;;;;;;;11.35;10.25;;;;;;;16.61;72.98;99781.34;4899785;28;116164;-65
2021/08/06 03:51:53;;;;;;;10.18;9.27;;;;;;;16.58;73.10;99773.03;4897299;28;127286;-69
2021/08/06 03:54:19;;;;;;;10.05;9.10;;;;;;;16.57;73.16;99783.13;4931535;28;126419;-68
2021/08/06 03:56:45;;;;;;;9.07;8.27;;;;;;;16.55;72.84;99782.66;4933759;28;121430;-68
2021/08/06 03:59:11;;;;;;;9.32;8.02;;;;;;;16.53;72.70;99782.16;4900283;28;126130;-65
2021/08/06 04:01:37;;;;;;;8.45;7.55;;;;;;;16.52;73.03;99777.84;4917210;28;104011;-65
2021/08/06 04:04:06;;;;;;;7.90;6.97;;;;;;;16.52;72.81;99782.50;4879708;28;127368;-68
2021/08/06 04:06:32;;;;;;;9.10;7.80;;;;;;;16.50;72.82;99769.19;4894376;28;97915;-65
2021/08/06 04:08:58;;;;;;;9.70;7.90;;;;;;;16.49;72.61;99767.63;4883239;28;127562;-68
2021/08/06 04:11:24;;;;;;;8.73;7.93;;;;;;;16.48;72.67;99771.47;4902392;28;127130;-68
2021/08/06 04:13:50;;;;;;;7.93;7.15;;;;;;;16.48;72.87;99760.59;4917343;28;99046;-68
2021/08/06 04:16:16;;;;;;;8.30;7.60;;;;;;;16.47;72.53;99763.63;4903457;28;114011;-65
2021/08/06 04:18:42;;;;;;;7.90;7.20;;;;;;;16.48;72.46;99766.03;4900550;28;127273;-68
2021/08/06 04:21:08;;;;;;;9.05;8.15;;;;;;;16.44;72.77;99752.25;4902127;28;126951;-68
2021/08/06 04:23:34;;;;;;;8.77;7.97;;;;;;;16.41;72.58;99761.06;4903307;28;97914;-68
2021/08/06 04:26:00;;;;;;;8.75;7.95;;;;;;;16.45;72.88;99766.66;4902919;28;106452;-65
2021/08/06 04:28:26;;;;;;;9.65;8.15;;;;;;;16.52;72.70;99758.81;4902598;28;112019;-65
2021/08/06 04:30:52;;;;;;;9.35;8.48;;;;;;;16.61;72.55;99756.06;4901730;28;127699;-65
2021/08/06 04:33:18;;;;;;;9.23;8.15;;;;;;;16.71;72.53;99765.81;4902042;28;127612;-68
2021/08/06 04:35:44;;;;;;;9.40;8.50;;;;;;;16.77;72.10;99762.59;4901597;28;122098;-65
2021/08/06 04:38:10;;;;;;;9.70;8.00;;;;;;;16.83;71.97;99768.69;4900009;28;127218;-65
2021/08/06 04:40:37;;;;;;;8.98;8.13;;;;;;;16.90;71.82;99766.25;4885259;28;98308;-65
2021/08/06 04:43:03;;;;;;;8.30;7.60;;;;;;;16.96;71.79;99766.88;4903012;28;97852;-68
2021/08/06 04:45:30;;;;;;;9.25;8.38;;;;;;;16.99;71.51;99767.00;4902406;28;123365;-65
2021/08/06 04:48:00;;;;;;;10.02;8.88;;;;;;;16.98;71.25;99762.69;4901055;28;98815;-68
2021/08/06 04:50:26;;;;;;;10.10;9.20;;;;;;;16.96;71.46;99766.88;4902566;28;98188;-68
2021/08/06 04:52:52;;;;;;;10.82;9.93;;;;;;;16.95;71.33;99762.56;4901377;28;127574;-68
2021/08/06 04:55:18;;;;;;;10.35;9.40;;;;;;;16.95;71.56;99762.56;4903774;28;99262;-68
2021/08/06 04:57:45;;;;;;;10.13;9.07;;;;;;;16.97;71.30;99763.81;4902841;28;111355;-65
2021/08/06 05:00:11;;;;;;;9.38;8.48;;;;;;;16.99;71.41;99763.50;4902796;28;98942;-65
2021/08/06 05:02:37;;;;;;;8.65;7.80;;;;;;;17.03;71.41;99756.28;4900202;28;114937;-65
2021/08/06 05:05:04;;;;;;;8.93;8.13;;;;;;;17.08;71.14;99751.44;4901503;28;123065;-65
2021/08/06 05:07:30;;;;;;;8.38;7.57;;;;;;;17.17;71.19;99752.19;4903260;28;98937;-68
2021/08/06 05:09:57;;;;;;;9.23;8.43;;;;;;;17.25;70.89;99747.00;4901994;28;114057;-65
2021/08/06 05:12:23;;;;;;;8.27;7.57;;;;;;;17.29;70.80;99742.50;4902189;28;103538;-68
2021/08/06 05:14:49;;;;;;;8.52;7.72;;;;;;;17.35;70.73;99741.19;4900845;28;105808;-69
2021/08/06 05:17:15;;;;;;;8.40;7.70;;;;;;;17.38;70.97;99744.06;4903222;28;98660;-68
2021/08/06 05:19:42;;;;;;;8.48;7.72;;;;;;;17.43;70.59;99751.25;4901300;28;126441;-68
2021/08/06 05:22:08;;;;;;;8.07;7.28;;;;;;;17.46;70.50;99752.53;4901889;28;98181;-68
2021/08/06 05:24:34;;;;;;;8.52;7.75;;;;;;;17.47;70.42;99748.66;4902517;28;104141;-67
2021/08/06 05:27:00;;;;;;;9.82;9.02;;;;;;;17.46;70.35;99752.53;4901282;28;127749;-68
2021/08/06 05:29:26;;;;;;;9.23;8.48;;;;;;;17.46;70.26;99755.25;4884057;28;119577;-65
2021/08/06 05:31:52;;;;;;;9.02;8.15;;;;;;;17.48;70.34;99753.78;4899250;28;127971;-65
2021/08/06 05:34:18;;;;;;;8.82;8.13;;;;;;;17.51;70.13;99755.03;4902083;28;99359;-65
2021/08/06 05:36:44;;;;;;;8.27;7.57;;;;;;;17.54;70.19;99757.91;4902391;28;98426;-68
2021/08/06 05:39:10;;;;;;;8.57;7.75;;;;;;;17.57;69.40;99764.63;4899421;28;129420;-68
2021/08/06 05:41:36;;;;;;;9.23;8.43;;;;;;;17.57;69.78;99756.47;4901842;28;126898;-68
2021/08/06 05:44:02;;;;;;;9.02;8.13;;;;;;;17.59;69.94;99765.88;4902706;28;97902;-68
2021/08/06 05:46:28;;;;;;;8.50;7.70;;;;;;;17.61;69.88;99762.84;4902362;28;113212;-65
2021/08/06 05:48:54;;;;;;;8.38;7.60;;;;;;;17.63;69.80;99763.28;4902781;28;98006;-68
2021/08/06 05:51:20;;;;;;;8.40;7.60;;;;;;;17.64;69.48;99764.88;4901131;28;123636;-65
2021/08/06 05:53:46;;;;;;;7.80;7.05;;;;;;;17.66;69.62;99768.09;4901604;28;121360;-65
2021/08/06 05:56:12;;;;;;;8.23;7.47;;;;;;;17.65;69.58;99772.75;4899093;28;127873;-65
2021/08/06 05:58:40;;;;;;;8.85;8.05;;;;;;;17.62;69.45;99764.44;4883060;28;127904;-68
2021/08/06 06:01:06;;;;;;;9.00;8.20;;;;;;;17.61;69.41;99777.25;4901814;28;113377;-68
2021/08/06 06:03:32;;;;;;;9.77;7.72;;;;;;;17.64;69.71;99767.59;4900437;28;121262;-65
2021/08/06 06:05:58;;;;;;;8.48;7.50;;;;;;;17.70;69.50;99768.22;4900993;28;127781;-68
2021/08/06 06:08:24;;;;;;;8.98;7.03;;;;;;;17.80;69.10;99774.13;4883031;28;127754;-65
2021/08/06 06:10:50;;;;;;;10.20;8.13;;;;;;;17.90;68.91;99768.25;4902253;28;97952;-68
2021/08/06 06:13:17;;;;;;;8.43;7.43;;;;;;;17.98;69.00;99768.53;4901954;28;97931;-65
2021/08/06 06:15:43;;;;;;;8.32;7.53;;;;;;;18.07;68.69;99772.75;4899432;28;98382;-68
2021/08/06 06:18:09;;;;;;;8.60;7.90;;;;;;;18.19;68.26;99782.94;4898411;28;124403;-65
2021/08/06 06:20:35;;;;;;;8.40;7.70;;;;;;;18.25;68.00;99772.63;4901751;28;98249;-68
2021/08/06 06:23:02;;;;;;;9.38;8.02;;;;;;;18.35;67.62;99778.47;4898770;28;107465;-65
2021/08/06 06:25:28;;;;;;;8.30;7.40;;;;;;;18.45;67.74;99777.22;4900347;28;117788;-65
2021/08/06 06:28:04;;;;;;;9.13;7.63;;;;;;;18.50;67.58;99779.75;4902240;28;97992;-65
2021/08/06 06:30:31;;;;;;;7.95;7.18;;;;;;;18.47;67.35;99776.88;4900879;28;112482;-65
2021/08/06 06:32:58;;;;;;;9.27;8.48;;;;;;;18.47;67.49;99783.16;4901205;28;97957;-65
2021/08/06 06:35:25;;;;;;;8.35;7.65;;;;;;;18.50;67.61;99778.94;4926595;28;98795;-68
2021/08/06 06:37:51;;;;;;;8.30;7.50;;;;;;;18.56;67.39;99783.06;4882185;28;98186;-65
2021/08/06 06:40:17;;;;;;;8.18;7.47;;;;;;;18.59;67.32;99785.13;4894323;28;98177;-65
2021/08/06 06:42:45;;;;;;;8.30;7.55;;;;;;;18.68;67.09;99776.84;4932562;28;98385;-65
2021/08/06 06:45:11;;;;;;;8.13;7.32;;;;;;;18.71;67.00;99779.72;4900544;28;100136;-65
2021/08/06 06:47:39;;;;;;;8.38;7.57;;;;;;;18.76;66.94;99781.44;4901081;28;98488;-68
2021/08/06 06:50:07;;;;;;;7.43;6.68;;;;;;;18.87;66.80;99779.88;4901255;28;98176;-68
2021/08/06 06:52:33;;;;;;;7.20;6.50;;;;;;;19.07;66.59;99784.44;4900375;28;97778;-66
2021/08/06 06:54:59;;;;;;;7.13;6.43;;;;;;;19.30;66.43;99784.78;4901254;28;98416;-68
2021/08/06 06:57:25;;;;;;;6.07;5.40;;;;;;;19.63;65.39;99783.09;4900706;28;111669;-65
2021/08/06 06:59:51;;;;;;;6.00;5.40;;;;;;;19.94;64.72;99793.38;4901402;28;97887;-68
2021/08/06 07:02:17;;;;;;;6.63;5.90;;;;;;;20.17;63.90;99775.31;4901637;28;103233;-68
2021/08/06 07:04:43;;;;;;;5.57;5.07;;;;;;;20.38;63.74;99779.78;4901448;28;97863;-66
2021/08/06 07:07:09;;;;;;;6.40;4.85;;;;;;;20.56;63.72;99781.88;4897873;28;127282;-68
2021/08/06 07:09:35;;;;;;;5.00;4.53;;;;;;;20.68;62.63;99783.75;4882184;28;125329;-66
2021/08/06 07:12:01;;;;;;;4.65;4.20;;;;;;;20.75;62.08;99773.00;4898990;28;123202;-68
2021/08/06 07:14:27;;;;;;;4.53;4.13;;;;;;;20.80;61.56;99783.69;4900403;28;113712;-68
2021/08/06 07:16:53;;;;;;;5.15;4.03;;;;;;;20.81;61.21;99790.75;4898813;28;108535;-66
2021/08/06 07:19:20;;;;;;;4.05;3.60;;;;;;;20.79;60.78;99798.53;4900050;28;124714;-65
2021/08/06 07:21:48;;;;;;;4.28;3.88;;;;;;;20.78;60.87;99796.91;4913972;28;121624;-65
2021/08/06 07:24:15;;;;;;;4.10;3.70;;;;;;;20.74;60.84;99795.22;4899436;28;100030;-68
2021/08/06 07:26:41;;;;;;;3.85;3.08;;;;;;;20.69;60.42;99790.03;4899683;28;98512;-66
2021/08/06 07:29:07;;;;;;;3.70;3.17;;;;;;;20.72;60.33;99794.81;4899689;28;112773;-68
2021/08/06 07:31:33;;;;;;;3.70;3.03;;;;;;;20.79;60.38;99787.56;4900866;28;97651;-66
2021/08/06 07:34:00;;;;;;;3.08;2.88;;;;;;;20.94;60.03;99790.66;4899818;28;98668;-68
2021/08/06 07:36:26;;;;;;;4.00;3.20;;;;;;;21.15;59.47;99795.88;4899363;28;127380;-66
2021/08/06 07:38:52;;;;;;;3.30;2.75;;;;;;;21.39;58.53;99800.41;4899877;28;127559;-68
2021/08/06 07:41:18;;;;;;;3.15;2.42;;;;;;;21.64;57.82;99790.78;4900424;28;105381;-69
2021/08/06 07:43:44;;;;;;;3.40;2.30;;;;;;;21.86;57.05;99799.50;4899126;28;128982;-65
2021/08/06 07:46:10;;;;;;;2.65;2.20;;;;;;;21.99;55.91;99796.25;4898451;28;100755;-68
2021/08/06 07:48:36;;;;;;;2.40;2.20;;;;;;;22.02;55.43;99797.50;4900135;28;117557;-68
2021/08/06 07:51:02;;;;;;;2.22;2.05;;;;;;;22.13;55.24;99793.06;4900075;28;122737;-68
2021/08/06 07:53:28;;;;;;;3.05;2.17;;;;;;;22.25;54.65;99798.41;4899150;28;126444;-68
2021/08/06 07:55:54;;;;;;;2.08;1.90;;;;;;;22.37;54.35;99796.66;4897469;28;125993;-65
2021/08/06 07:58:21;;;;;;;4.40;2.03;;;;;;;22.51;53.93;99791.41;4900196;28;103346;-66
2021/08/06 08:00:47;;;;;;;2.95;2.22;;;;;;;22.64;53.64;99797.56;4866068;28;98136;-66
2021/08/06 08:03:13;;;;;;;2.30;2.00;;;;;;;22.73;52.69;99798.91;4899972;28;98289;-68
2021/08/06 08:05:39;;;;;;;2.42;2.00;;;;;;;23.07;52.60;99807.38;4897842;28;98306;-65
2021/08/06 08:08:05;;;;;;;3.53;1.92;;;;;;;23.89;50.12;99800.38;4914521;28;100428;-65
2021/08/06 08:10:31;;;;;;;2.42;1.65;;;;;;;24.02;49.87;99802.91;4897689;28;122661;-68
2021/08/06 08:12:57;;;;;;;1.88;1.55;;;;;;;24.00;50.21;99798.56;4898610;28;121601;-68
2021/08/06 08:15:23;;;;;;;1.50;1.40;;;;;;;23.93;49.75;99790.22;4899154;28;127106;-68
2021/08/06 08:17:50;;;;;;;3.05;1.83;;;;;;;23.91;49.53;99797.25;4896822;28;127826;-68
2021/08/06 08:20:16;;;;;;;7.80;1.90;;;;;;;23.84;50.10;99789.69;4881492;28;122686;-68
2021/08/06 08:22:42;;;;;;;1.75;1.63;;;;;;;23.84;50.25;99789.69;4897724;28;127748;-68
2021/08/06 08:25:09;;;;;;;2.85;1.40;;;;;;;23.91;49.54;99787.03;4898001;28;127780;-68
2021/08/06 08:27:35;;;;;;;2.00;1.80;;;;;;;23.96;49.49;99778.44;4900625;28;98372;-68
2021/08/06 08:30:02;;;;;;;1.83;1.73;;;;;;;23.99;49.65;99777.72;4900435;28;98195;-65
2021/08/06 08:32:28;;;;;;;2.78;1.90;;;;;;;24.06;49.96;99781.72;4900388;28;98164;-65
2021/08/06 08:34:54;;;;;;;1.83;1.60;;;;;;;24.15;49.25;99774.75;4894796;28;127686;-68
2021/08/06 08:37:20;;;;;;;2.00;1.67;;;;;;;24.28;49.18;99791.00;4895757;28;127563;-65
2021/08/06 08:39:46;;;;;;;2.42;1.60;;;;;;;24.32;49.02;99789.09;4896216;28;122287;-68
2021/08/06 08:42:12;;;;;;;2.08;1.50;;;;;;;24.39;48.50;99787.25;4899328;28;127983;-68
2021/08/06 08:44:39;;;;;;;3.75;1.77;;;;;;;24.47;48.51;99791.66;4892859;28;102125;-68
2021/08/06 08:47:06;;;;;;;2.58;1.80;;;;;;;24.62;48.64;99798.13;4899821;28;98596;-66
2021/08/06 08:49:34;;;;;;;2.30;1.98;;;;;;;24.69;48.48;99794.66;4899808;28;102575;-68
2021/08/06 08:52:00;;;;;;;2.78;1.90;;;;;;;24.76;48.40;99788.41;4897462;28;119288;-69
2021/08/06 08:54:26;;;;;;;2.60;1.90;;;;;;;24.88;48.00;99788.94;4898273;28;126830;-69
2021/08/06 08:56:52;;;;;;;2.38;1.67;;;;;;;25.06;47.51;99780.81;4900240;28;99877;-66
2021/08/06 08:59:18;;;;;;;2.47;2.03;;;;;;;25.41;46.96;99779.53;4896836;28;111027;-65
2021/08/06 09:01:44;;;;;;;2.25;1.95;;;;;;;26.71;44.45;99776.16;4897040;28;98626;-65
2021/08/06 09:04:26;;;;;;;2.10;1.60;;;;;;;27.37;44.15;99779.34;4878150;28;115209;-65
2021/08/06 09:06:53;;;;;;;2.15;1.95;;;;;;;27.64;42.30;99777.69;4892992;28;97941;-66
2021/08/06 09:09:21;;;;;;;2.15;1.60;;;;;;;28.10;41.58;99773.25;4897212;28;98296;-66
2021/08/06 09:11:56;;;;;;;2.33;1.73;;;;;;;30.66;37.62;99783.13;4898702;28;99226;-68
2021/08/06 09:14:30;;;;;;;2.05;1.85;;;;;;;31.75;36.13;99784.50;4897193;28;98400;-68
2021/08/06 09:17:10;;;;;;;2.67;1.60;;;;;;;33.11;34.42;99775.94;4898403;28;117952;-69
2021/08/06 09:19:56;;;;;;;2.17;1.40;;;;;;;34.85;32.21;99793.75;4878702;28;98338;-69
2021/08/06 09:22:27;;;;;;;1.83;1.10;;;;;;;34.02;32.75;99783.50;4898447;28;98159;-66
2021/08/06 09:25:08;;;;;;;0.98;0.80;;;;;;;34.26;31.82;99775.59;4898721;28;98484;-68
2021/08/06 09:27:56;;;;;;;2.97;1.10;;;;;;;33.87;31.24;99761.50;4899915;28;98651;-68
2021/08/06 09:30:32;;;;;;;1.42;1.00;;;;;;;33.84;32.30;99754.03;4891648;28;99302;-69
2021/08/06 09:32:58;;;;;;;2.17;1.13;;;;;;;34.64;30.36;99754.03;4899364;28;98533;-66
2021/08/06 09:35:29;;;;;;;1.20;0.70;;;;;;;35.03;30.23;99754.78;4898685;28;128779;-69
2021/08/06 09:37:55;;;;;;;1.55;0.90;;;;;;;36.11;28.14;99758.13;4899363;28;98909;-69
2021/08/06 09:40:30;;;;;;;1.73;0.85;;;;;;;37.41;27.06;99751.66;4899164;28;112024;-69
2021/08/06 09:43:02;;;;;;;1.10;0.90;;;;;;;38.37;25.50;99748.53;4898622;28;120685;-65
2021/08/06 09:45:39;;;;;;;3.15;0.93;;;;;;;38.68;24.19;99743.38;4897966;28;99093;-65
2021/08/06 09:48:08;;;;;;;1.05;0.75;;;;;;;39.15;23.83;99741.84;4899165;28;101771;-68
2021/08/06 09:50:45;;;;;;;1.02;0.77;;;;;;;38.96;24.30;99731.97;4899586;28;98028;-65
2021/08/06 09:53:12;;;;;;;1.10;0.70;;;;;;;39.62;22.95;99728.16;4897588;28;98878;-68
2021/08/06 09:55:43;;;;;;;1.25;0.70;;;;;;;40.26;23.17;99719.00;4897694;28;120704;-65
2021/08/06 09:58:15;;;;;;;1.02;0.77;;;;;;;40.80;23.27;99718.75;4898848;28;98070;-69
2021/08/06 10:00:55;;;;;;;1.13;0.75;;;;;;;41.10;21.90;99706.03;4897960;28;98105;-65
2021/08/06 10:03:35;;;;;;;1.15;0.73;;;;;;;41.55;21.20;99712.22;4898195;28;99116;-65
2021/08/06 10:06:18;;;;;;;0.90;0.70;;;;;;;41.66;20.84;99700.22;4898081;28;98887;-65
2021/08/06 10:08:46;;;;;;;1.48;0.85;;;;;;;41.79;20.03;99706.25;4899133;28;98814;-69
2021/08/06 10:11:12;;;;;;;1.27;0.70;;;;;;;41.89;20.09;99698.38;4898071;28;98253;-69
2021/08/06 10:13:38;;;;;;;2.97;2.72;;;;;;;42.11;20.05;99689.28;4897814;28;99028;-65
2021/08/06 10:16:05;;;;;;;2.35;1.10;;;;;;;42.29;19.68;99696.63;4898492;28;98411;-66
2021/08/06 10:18:31;;;;;;;2.17;0.90;;;;;;;42.48;18.93;99685.66;4898160;28;98447;-66
2021/08/06 10:20:57;;;;;;;1.55;0.90;;;;;;;42.52;19.07;99680.53;4897798;28;108456;-65
2021/08/06 10:23:23;;;;;;;1.40;0.80;;;;;;;42.50;18.89;99678.22;4897946;28;127808;-65
2021/08/06 10:25:49;;;;;;;2.10;0.70;;;;;;;42.46;18.62;99686.19;4897386;28;113660;-66
2021/08/06 10:28:15;;;;;;;2.92;1.10;;;;;;;42.25;18.65;99670.63;4896266;28;127777;-70
2021/08/06 10:30:41;;;;;;;1.98;0.60;;;;;;;41.96;18.98;99663.97;4898805;28;98011;-69
2021/08/06 10:33:20;;;;;;;0.93;0.70;;;;;;;42.01;19.33;99657.56;4898580;28;99375;-70
2021/08/06 10:35:54;;;;;;;1.35;0.75;;;;;;;42.05;19.42;99663.78;4898483;28;98258;-66
2021/08/06 10:38:39;;;;;;;0.90;0.60;;;;;;;42.28;19.50;99659.06;4863819;28;100136;-66
2021/08/06 10:41:16;;;;;;;1.35;1.10;;;;;;;42.09;18.99;99655.06;4898572;28;98221;-66
2021/08/06 10:43:49;;;;;;;1.70;0.60;;;;;;;42.08;19.19;99662.00;4897730;28;98549;-70
2021/08/06 10:46:17;;;;;;;1.00;0.60;;;;;;;42.31;19.01;99655.22;4897995;28;98503;-70
2021/08/06 10:48:51;;;;;;;1.40;0.55;;;;;;;42.31;18.07;99643.91;4898146;28;98161;-66
2021/08/06 10:51:31;;;;;;;3.40;0.80;;;;;;;41.87;17.59;99650.81;4897714;28;97987;-70
2021/08/06 10:53:57;;;;;;;1.20;0.60;;;;;;;41.67;18.00;99637.53;4896876;28;99045;-70
2021/08/06 10:56:30;;;;;;;1.30;0.50;;;;;;;41.61;18.59;99644.41;4897889;28;99039;-66
2021/08/06 10:59:02;;;;;;;1.45;0.73;;;;;;;41.48;17.90;99638.38;4898087;28;98465;-66
2021/08/06 11:01:28;;;;;;;0.90;0.40;;;;;;;41.18;17.64;99636.53;4896938;28;98076;-70
2021/08/06 11:03:58;;;;;;;0.73;0.40;;;;;;;40.90;17.74;99635.44;4896823;28;98821;-70
2021/08/06 11:06:48;;;;;;;1.60;0.43;;;;;;;40.72;17.92;99619.59;4896600;28;99162;-65
2021/08/06 11:09:24;;;;;;;0.73;0.35;;;;;;;40.72;18.45;99611.91;4881480;28;98093;-70
2021/08/06 11:12:10;;;;;;;1.45;0.47;;;;;;;40.56;17.72;99612.47;4895916;28;97956;-66
2021/08/06 11:14:38;;;;;;;1.40;0.40;;;;;;;40.39;18.13;99605.78;4896760;28;98456;-70
2021/08/06 11:17:18;;;;;;;0.75;0.38;;;;;;;40.30;18.71;99611.59;4889766;28;100115;-70
2021/08/06 11:20:08;;;;;;;0.80;0.40;;;;;;;39.97;18.94;99593.69;4865795;28;98066;-71
2021/08/06 11:22:44;;;;;;;1.17;0.40;;;;;;;39.06;19.43;99584.19;4897154;28;111736;-66
2021/08/06 11:25:22;;;;;;;1.98;0.40;;;;;;;38.72;19.85;99586.34;4894893;28;98293;-66
2021/08/06 11:27:54;;;;;;;2.17;0.40;;;;;;;38.92;19.84;99584.97;4897560;28;98053;-71
2021/08/06 11:30:28;;;;;;;0.70;0.30;;;;;;;38.94;19.77;99586.00;4895886;28;98873;-66
2021/08/06 11:33:08;;;;;;;1.77;0.40;;;;;;;38.16;20.62;99582.38;4876674;28;97937;-66
2021/08/06 11:35:39;;;;;;;2.87;0.30;;;;;;;36.59;21.82;99570.69;4896954;28;107314;-70